Smith River @ Bristol, Nh

Smith River at Bristol
 Total Drainage Area: 86 sq. miles 
 Drainage Area Controlled by Corps Dams: 0 sq. miles (0%) 
 Warning Flow/Stage: 1,540 cfs / 6.5 feet 
 Flood Flow/Stage: 2,380 cfs / 8.0 feet 
Date Time
(Eastern)
Stage
(ft)
Flow
(cfs)
CSM
(cfs / sq. mi.)
Jun-25 12:30 am 3.10 143 1.7
Jun-24 11:30 pm 3.12 146 1.7
Jun-24 10:30 pm 3.16 153 1.8
Jun-24 09:30 pm 3.18 156 1.8
Jun-24 08:30 pm 3.21 161 1.9
Jun-24 07:30 pm 3.24 167 1.9
Jun-24 06:30 pm 3.26 170 2.0
Jun-24 05:30 pm 3.28 174 2.0
Jun-24 04:30 pm 3.29 176 2.1
Jun-24 03:30 pm 3.29 176 2.1
Jun-24 02:30 pm 3.29 176 2.1
Jun-24 01:30 pm 3.28 174 2.0
Jun-24 12:30 pm 3.26 170 2.0
Jun-24 11:30 am 3.24 167 1.9
Jun-24 10:30 am 3.20 160 1.9
Jun-24 09:30 am 3.17 154 1.8
Jun-24 08:30 am 3.13 148 1.7
Jun-24 07:30 am 3.10 143 1.7
Jun-24 06:30 am 3.08 139 1.6
Jun-24 05:30 am 3.07 138 1.6
Jun-24 04:30 am 3.05 135 1.6
Jun-24 03:30 am 3.03 132 1.5
Jun-24 02:30 am 3.01 129 1.5
Jun-24 01:30 am 2.98 124 1.4
Jun-24 12:30 am 2.91 114 1.3
Report Generated June 25, 2024 05:30 am